Tiempo atmosférico en la estación meteorológica de Olite/Erriberri, Navarra (390 m.)



Fecha
DESCASC
Temp. máxima en grados centígrados (hora)
DESCASC
Temp. mínima en grados centígrados (hora)
DESCASC
Temp. media en grados centígrados
DESCASC
Racha de viento máxima en m/sg (hora)
DESCASC
Velocidad máxima media en intervalos de 10 minutos(hora)
DESCASC
Precipitaciones diarias en mm
DESCASC
Precipitaciones de 00:00 a 06:00 en mm
DESCASC
Precipitaciones de 06:00 a 12:00 en mm
DESCASC
Precipitaciones de 12:00 a 18:00 en mm
DESCASC
Precipitaciones de 18:00 a 24:00 en mm
DESCASC
27-12-2019 12.2 (14:40) -1.4 (-00:0) 5.4 7.5 (23:40) 5.83 (23:40) 0 0 0 0 0
28-12-2019 9.8 (14:50) -1.3 (-00:0) 4.3 6.67 (00:20) 4.72 (00:20) 0 0 0 0 0
29-12-2019 1.8 (17:00) -1.7 (-00:0) 0 3.89 (23:30) 2.5 (23:30) 0 0 0 0 0
30-12-2019 -- (--) -- (--) -- -- (--) -- (--) -- 0 0 0 --
31-12-2019 -- (--) -- (--) -- -- (--) -- (--) -- 0 0 0 --
01-01-2020 1.6 (13:10) 0.2 (00:00) 0.9 3.06 (05:50) 1.67 (13:40) 0 0 0 0 0
02-01-2020 0.7 (16:20) -1 (-00:0) -0.2 3.89 (21:30) 2.5 (21:30) 0 0 0 0 0
03-01-2020 9.9 (15:40) -0.8 (-00:0) 4.5 8.89 (15:10) 5 (15:10) 0 0 0 0 0
04-01-2020 11 (12:10) 5.7 (00:00) 8.3 12.78 (13:50) 6.67 (17:10) 0 0 0 0 0
05-01-2020 12.9 (15:50) 0.7 (00:00) 6.8 7.5 (04:40) 5.28 (07:20) 0 0 0 0 0
06-01-2020 2.4 (23:00) -1.5 (-00:0) 0.5 5 (23:00) 3.06 (20:00) 0 0 0 0 0
07-01-2020 10.5 (20:50) -2.4 (-00:0) 4 8.61 (23:10) 5.56 (23:20) 0 0 0 0 0
08-01-2020 10.2 (00:00) 0.8 (00:00) 5.5 7.22 (03:10) 5.28 (03:10) 0 0 0 0 0
09-01-2020 4.1 (20:20) 2.3 (00:00) 3.2 6.11 (18:50) 4.44 (18:50) 0.2 0 0 0 0.2
10-01-2020 9.6 (15:20) 3.8 (00:00) 6.7 11.11 (22:10) 6.67 (22:20) 0 0 0 0 0
11-01-2020 10.5 (15:00) 0.3 (00:00) 5.4 13.61 (00:40) 8.61 (02:50) 0 0 0 0 0
12-01-2020 12.7 (14:40) -2.1 (-00:0) 5.3 8.61 (09:10) 7.22 (09:20) 0 0 0 0 0
13-01-2020 5 (14:20) -3.1 (-00:0) 1 4.17 (14:40) 2.5 (14:40) 0 0 0 0 0
14-01-2020 4 (16:10) -2.6 (-00:0) 0.7 3.61 (11:20) 2.22 (11:20) 0 0 0 0 0
15-01-2020 11.1 (15:30) -0.9 (-00:0) 5.1 8.89 (14:30) 5.56 (04:10) 0 0 0 0 0
16-01-2020 13.8 (15:40) 0 (00:00) 6.9 11.67 (12:00) 6.94 (15:00) 0 0 0 0 0
17-01-2020 12 (12:20) 3.9 (00:00) 8 13.33 (12:40) 6.67 (12:40) 0.6 0 0 0.6 0
18-01-2020 10.6 (13:50) 1.1 (00:00) 5.9 11.67 (16:10) 7.22 (14:50) 19.6 0 0 0.4 19.2
19-01-2020 6.6 (08:00) 2.7 (00:00) 4.6 21.94 (20:10) 11.94 (22:40) 4.6 4.4 0.2 0 0
20-01-2020 3.8 (14:40) 1.1 (00:00) 2.4 21.11 (01:10) 12.5 (01:50) 0 0 0 0 0
21-01-2020 4.5 (21:20) 0.9 (00:00) 2.7 10 (05:30) 6.39 (03:00) 2 0 1 1 0
22-01-2020 10.1 (15:00) 1.7 (00:00) 5.9 5 (05:10) 3.61 (05:30) 1.4 0.2 0 0 1.2
23-01-2020 7.9 (14:40) 5.3 (00:00) 6.6 7.5 (17:20) 4.72 (17:30) 0.2 0 0.2 0 0
24-01-2020 11 (14:40) 3.5 (00:00) 7.3 7.22 (13:30) 4.72 (13:30) 0 0 0 0 0
25-01-2020 9.6 (16:10) 5.8 (00:00) 7.7 10 (13:10) 5.28 (13:20) 1 0 0.2 0.4 0.4

Gráficas

Temp. máximas Temp. mínimas Temp. medias Precipitaciones Rachas de viento máximas Velocidades máximas media en intervalos de 10 minutos

Datos horarios

Fecha y hora oficial Temperatura (ºC) Velocidad del viento (km/h) Dirección del viento Racha (km/h) Dirección de racha Precipitación (mm) Presión (hPa) Tendencia (hPa) Humedad (%)
2020-01-25 23:00:00 7.8 4 Sudeste 13 Sudeste 0 -- -- 91
2020-01-25 22:00:00 8 5 Sudeste 10 Sudeste 0 -- -- 89
2020-01-25 21:00:00 8.2 7 Sudeste 12 Sudeste 0 -- -- 87
2020-01-25 20:00:00 8.4 6 Sudeste 12 Sudeste 0 -- -- 86
2020-01-25 19:00:00 8.6 8 Sudeste 18 Sur 0 -- -- 85
2020-01-25 18:00:00 9.1 9 Sudeste 21 Sudeste 0 -- -- 85
2020-01-25 17:00:00 9.5 12 Sudeste 26 Sudeste 0 -- -- 83
2020-01-25 16:00:00 9.5 14 Sudeste 22 Sudeste 0 -- -- 83
2020-01-25 15:00:00 8.9 13 Sudeste 23 Este 0 -- -- 86
2020-01-25 14:00:00 8.3 16 Sudeste 36 Sudeste 0.2 -- -- 90
2020-01-25 13:00:00 8.2 18 Sudeste 31 Sudeste 0.2 -- -- 90
2020-01-25 12:00:00 7.5 14 Sudeste 27 Sudeste 0.2 -- -- 90
2020-01-25 11:00:00 7.3 8 Sudeste 13 Sudeste 0 -- -- 88
2020-01-25 10:00:00 6.9 6 Sur 12 Sur 0 -- -- 88
2020-01-25 09:00:00 6.7 6 Sudeste 9 Sudeste 0 -- -- 85
2020-01-25 08:00:00 6.1 4 Sudeste 8 Este 0 -- -- 88
2020-01-25 07:00:00 6.1 3 Este 10 Sudeste 0 -- -- 87
2020-01-25 06:00:00 6.4 4 Este 10 Sudeste 0 -- -- 88
2020-01-25 05:00:00 6.8 6 Sur 9 Sudeste 0 -- -- 88
2020-01-25 04:00:00 6.9 4 Sudeste 10 Sudeste 0 -- -- 87
2020-01-25 03:00:00 7.3 5 Sudeste 9 Sudeste 0 -- -- 86
2020-01-25 02:00:00 7.5 4 Sur 12 Sudeste 0 -- -- 85
2020-01-25 01:00:00 7.8 8 Sudeste 14 Sudeste 0 -- -- 83
2020-01-25 00:00:00 7.6 4 Sur 7 Sur 0 -- -- 86
2020-01-24 23:00:00 8 0 Calma 10 Sudeste 0 -- -- 83
2020-01-24 22:00:00 8.1 3 Este 6 Sudeste 0 -- -- 82
2020-01-24 21:00:00 8.6 4 Sudeste 12 Sudeste 0 -- -- 80
2020-01-24 20:00:00 8.5 3 Sudeste 15 Sur 0 -- -- 82
2020-01-24 19:00:00 9.4 9 Sudeste 15 Sudeste 0 -- -- 77
2020-01-24 18:00:00 10 10 Sudeste 21 Sudeste 0 -- -- 75
2020-01-24 17:00:00 10.5 12 Sudeste 21 Sudeste 0 -- -- 71
2020-01-24 16:00:00 10.4 12 Sudeste 24 Sudeste 0 -- -- 74
2020-01-24 15:00:00 10.8 15 Sudeste 26 Sudeste 0 -- -- 68
2020-01-24 14:00:00 10.6 14 Sudeste 26 Sudeste 0 -- -- 71
2020-01-24 13:00:00 10.6 14 Sudeste 24 Sudeste 0 -- -- 75
2020-01-24 12:00:00 8.8 13 Sudeste 22 Sudeste 0 -- -- 81
2020-01-24 11:00:00 6.7 10 Sudeste 15 Sudeste 0 -- -- 88
2020-01-24 10:00:00 6 5 Sudeste 13 Sudeste 0 -- -- 88
2020-01-24 09:00:00 3.5 3 Sudeste 6 Este 0 -- -- 93
2020-01-24 08:00:00 4.4 5 Este 6 Este 0 -- -- 92
2020-01-24 07:00:00 5.3 3 Este 6 Sudeste 0 -- -- 91
2020-01-24 06:00:00 5.6 5 Sudeste 10 Sudeste 0 -- -- 89
2020-01-24 05:00:00 6.3 5 Sudeste 21 Sudeste 0 -- -- 86
2020-01-24 04:00:00 6.5 8 Sudeste 12 Sudeste 0 -- -- 85
2020-01-24 03:00:00 6.6 5 Sur 14 Sudeste 0 -- -- 85
2020-01-24 02:00:00 6.7 8 Sudeste 14 Sudeste 0 -- -- 83
2020-01-24 01:00:00 6.3 0 Calma 9 Sudeste 0 -- -- 85
2020-01-24 00:00:00 6.4 7 Sudeste 19 Sudeste 0 -- -- 84
2020-01-23 23:00:00 6.7 10 Sudeste 22 Este 0 -- -- 82
2020-01-23 22:00:00 6.3 11 Sudeste 17 Sudeste 0 -- -- 83
2020-01-23 21:00:00 6.2 10 Sudeste 16 Sudeste 0 -- -- 85
2020-01-23 20:00:00 6.3 9 Sudeste 21 Sudeste 0 -- -- 84
2020-01-23 19:00:00 6.8 13 Sudeste 23 Sudeste 0 -- -- 84
2020-01-23 18:00:00 7 14 Sudeste 27 Sudeste 0 -- -- 84
2020-01-23 17:00:00 7.4 16 Sudeste 25 Sudeste 0 -- -- 84
2020-01-23 16:00:00 7.5 17 Sudeste 26 Sudeste 0 -- -- 85
2020-01-23 15:00:00 7.8 12 Sudeste 24 Sudeste 0 -- -- 85
2020-01-23 14:00:00 7.5 8 Sudeste 13 Sur 0 -- -- 90
2020-01-23 13:00:00 6.8 4 Sur 7 Sudeste 0 -- -- 91
2020-01-23 12:00:00 6.5 2 Este 4 Este 0 -- -- 92
2020-01-23 11:00:00 6 0 Calma 3 Norte 0 -- -- 94
2020-01-23 10:00:00 5.5 0 Calma 4 Sudeste 0 -- -- 95
2020-01-23 09:00:00 5.3 0 Calma 8 Noroeste 0.2 -- -- 93
2020-01-23 08:00:00 5.5 3 Oeste 8 Oeste 0 -- -- 93
2020-01-23 07:00:00 5.6 4 Norte 6 Oeste 0 -- -- 94
2020-01-23 06:00:00 5.7 3 Noroeste 6 Noroeste 0 -- -- 95
2020-01-23 05:00:00 5.9 0 Calma 5 Oeste 0 -- -- 95
2020-01-23 04:00:00 5.9 0 Calma 6 Sudeste 0 -- -- 95
2020-01-23 03:00:00 6 4 Sudeste 6 Sudeste 0 -- -- 95
2020-01-23 02:00:00 6 3 Sur 9 Sudeste 0 -- -- 96
2020-01-23 01:00:00 5.9 5 Sudeste 8 Sudeste 0 -- -- 95
2020-01-23 00:00:00 5.7 0 Calma 5 Nordeste 0 -- -- 95
2020-01-22 23:00:00 6 2 Nordeste 4 Sudoeste 0 -- -- 94
2020-01-22 22:00:00 6.6 0 Calma 5 Oeste 0.2 -- -- 94
2020-01-22 21:00:00 7 0 Calma 9 Sur 0.4 -- -- 92
2020-01-22 20:00:00 7.4 5 Sur 10 Sur 0.4 -- -- 91
2020-01-22 19:00:00 7.9 4 Oeste 12 Noroeste 0.2 -- -- 87
2020-01-22 18:00:00 8.5 11 Noroeste 14 Noroeste 0 -- -- 82
2020-01-22 17:00:00 9.1 8 Noroeste 16 Noroeste 0 -- -- 77
2020-01-22 16:00:00 9.5 8 Oeste 16 Noroeste 0 -- -- 74
2020-01-22 15:00:00 10.1 8 Noroeste 14 Noroeste 0 -- -- 71
2020-01-22 14:00:00 9 9 Noroeste 14 Noroeste 0 -- -- 76
2020-01-22 13:00:00 8.1 3 Oeste 11 Oeste 0 -- -- 80
2020-01-22 12:00:00 5.8 3 Norte 6 Norte 0 -- -- 86
2020-01-22 11:00:00 4.1 0 Calma 5 Este 0 -- -- 91
2020-01-22 10:00:00 2.9 0 Calma 9 Noroeste 0 -- -- 93
2020-01-22 09:00:00 1.7 4 Norte 14 Noroeste 0 -- -- 94
2020-01-22 08:00:00 2.8 10 Noroeste 14 Noroeste 0 -- -- 92
2020-01-22 07:00:00 3 5 Noroeste 14 Noroeste 0 -- -- 93
2020-01-22 06:00:00 3.5 10 Oeste 18 Oeste 0 -- -- 91
2020-01-22 05:00:00 3.1 8 Noroeste 14 Noroeste 0 -- -- 91
2020-01-22 04:00:00 3.2 5 Norte 11 Noroeste 0.2 -- -- 90
2020-01-22 03:00:00 2.5 3 Sudoeste 7 Norte 0 -- -- 92
2020-01-22 02:00:00 1.9 3 Noroeste 5 Noroeste 0 -- -- 93
2020-01-22 01:00:00 2 0 Calma 10 Noroeste 0 -- -- 91
2020-01-22 00:00:00 2.9 5 Noroeste 14 Noroeste 0 -- -- 88
2020-01-21 23:00:00 3.3 2 Noroeste 22 Noroeste 0 -- -- 84
2020-01-21 22:00:00 4.1 9 Noroeste 24 Noroeste 0 -- -- 81
2020-01-21 21:00:00 4.3 10 Noroeste 25 Oeste 0 -- -- 78
2020-01-21 20:00:00 3.9 15 Noroeste 25 Noroeste 0 -- -- 78
2020-01-21 19:00:00 4 11 Noroeste 30 Noroeste 0 -- -- 78
2020-01-21 18:00:00 3.9 12 Noroeste 27 Oeste 0 -- -- 80
2020-01-21 17:00:00 4.1 15 Noroeste 26 Noroeste 0 -- -- 80
2020-01-21 16:00:00 3.4 14 Noroeste 27 Noroeste 0 -- -- 85
2020-01-21 15:00:00 3.2 15 Noroeste 28 Noroeste 0.6 -- -- 86
2020-01-21 14:00:00 3.1 15 Noroeste 29 Noroeste 0.4 -- -- 85
2020-01-21 13:00:00 3.3 15 Noroeste 28 Norte 0 -- -- 81
2020-01-21 12:00:00 2.9 18 Noroeste 30 Noroeste 1 -- -- 84
2020-01-21 11:00:00 2.8 17 Noroeste 32 Noroeste 0 -- -- 80
2020-01-21 10:00:00 2.4 15 Noroeste 31 Noroeste 0 -- -- 78
2020-01-21 09:00:00 1.8 13 Noroeste 33 Noroeste 0 -- -- 80
2020-01-21 08:00:00 2.5 10 Noroeste 16 Noroeste 0 -- -- 77
2020-01-21 07:00:00 2.7 4 Nordeste 31 Noroeste 0 -- -- 73
2020-01-21 06:00:00 3 18 Noroeste 36 Noroeste 0 -- -- 70
2020-01-21 05:00:00 2.6 11 Noroeste 23 Norte 0 -- -- 72
2020-01-21 04:00:00 2.4 18 Noroeste 33 Noroeste 0 -- -- 72
2020-01-21 03:00:00 1.4 23 Noroeste 33 Noroeste 0 -- -- 76
2020-01-21 02:00:00 1.1 16 Noroeste 23 Oeste 0 -- -- 76
2020-01-21 01:00:00 1.3 14 Noroeste 26 Noroeste 0 -- -- 74
2020-01-21 00:00:00 1.4 14 Noroeste 25 Noroeste 0 -- -- 72
2020-01-20 23:00:00 1.4 16 Noroeste 33 Noroeste 0 -- -- 72
2020-01-20 22:00:00 1.8 17 Noroeste 37 Noroeste 0 -- -- 70
2020-01-20 21:00:00 2 19 Noroeste 34 Noroeste 0 -- -- 70
2020-01-20 20:00:00 2.3 16 Noroeste 31 Noroeste 0 -- -- 69
2020-01-20 19:00:00 2.3 12 Noroeste 30 Noroeste 0 -- -- 68
2020-01-20 18:00:00 2.6 16 Noroeste 42 Noroeste 0 -- -- 65
2020-01-20 17:00:00 3.1 19 Noroeste 39 Noroeste 0 -- -- 62
2020-01-20 16:00:00 3.5 21 Noroeste 39 Noroeste 0 -- -- 59
2020-01-20 15:00:00 3.8 21 Noroeste 38 Noroeste 0 -- -- 57
2020-01-20 14:00:00 3.4 16 Noroeste 30 Norte 0 -- -- 60
2020-01-20 13:00:00 3.1 18 Noroeste 31 Noroeste 0 -- -- 59
2020-01-20 12:00:00 3.2 15 Noroeste 27 Noroeste 0 -- -- 55
2020-01-20 11:00:00 2.7 15 Noroeste 34 Noroeste 0 -- -- 56
2020-01-20 10:00:00 1.9 16 Noroeste 37 Noroeste 0 -- -- 59
2020-01-20 09:00:00 1.1 18 Noroeste 46 Noroeste 0 -- -- 61
2020-01-20 08:00:00 1.2 18 Noroeste 50 Noroeste 0 -- -- 60
2020-01-20 07:00:00 1.2 22 Norte 46 Norte 0 -- -- 61
2020-01-20 06:00:00 1.2 22 Norte 57 Norte 0 -- -- 62
2020-01-20 05:00:00 1.4 30 Norte 66 Norte 0 -- -- 61
2020-01-20 04:00:00 1.6 33 Norte 67 Norte 0 -- -- 62
2020-01-20 03:00:00 1.8 35 Norte 70 Norte 0 -- -- 62
2020-01-20 02:00:00 2 44 Norte 76 Norte 0 -- -- 63
2020-01-20 01:00:00 2.4 36 Norte 69 Norte 0 -- -- 61
2020-01-20 00:00:00 2.7 32 Norte 73 Norte 0 -- -- 59
2020-01-19 23:00:00 2.9 39 Norte 71 Norte 0 -- -- 59
2020-01-19 22:00:00 3.4 42 Norte 78 Norte 0 -- -- 56
2020-01-19 21:00:00 3.9 41 Norte 79 Norte 0 -- -- 55
2020-01-19 20:00:00 4.2 37 Norte 69 Norte 0 -- -- 54
2020-01-19 19:00:00 4.3 33 Norte 65 Norte 0 -- -- 53
2020-01-19 18:00:00 4.5 27 Norte 59 Norte 0 -- -- 55
2020-01-19 17:00:00 5.2 29 Norte 57 Norte 0 -- -- 55
2020-01-19 16:00:00 6 24 Norte 55 Norte 0 -- -- 58
2020-01-19 15:00:00 6 31 Norte 58 Norte 0 -- -- 65
2020-01-19 14:00:00 5.9 30 Norte 54 Norte 0 -- -- 69
2020-01-19 13:00:00 5.1 33 Noroeste 55 Noroeste 0 -- -- 71
2020-01-19 12:00:00 5.1 19 Noroeste 43 Noroeste 0 -- -- 73
2020-01-19 11:00:00 5.5 22 Norte 46 Norte 0 -- -- 70
2020-01-19 10:00:00 6.1 22 Norte 50 Norte 0 -- -- 68
2020-01-19 09:00:00 6.5 19 Norte 54 Norte 0.2 -- -- 68
2020-01-19 08:00:00 6.6 30 Norte 55 Norte 0 -- -- 67
2020-01-19 07:00:00 6.1 21 Norte 45 Noroeste 0 -- -- 79
2020-01-19 06:00:00 6.1 21 Norte 35 Noroeste 0 -- -- 84
2020-01-19 05:00:00 4.9 17 Noroeste 26 Noroeste 0 -- -- 93
2020-01-19 04:00:00 4.7 12 Noroeste 22 Oeste 0.2 -- -- 93
2020-01-19 03:00:00 4.6 14 Noroeste 23 Noroeste 1 -- -- 94
2020-01-19 02:00:00 4.7 10 Noroeste 19 Noroeste 2.2 -- -- 94
2020-01-19 01:00:00 4.8 12 Noroeste 21 Noroeste 1 -- -- 93
2020-01-19 00:00:00 5.3 9 Noroeste 19 Noroeste 1.6 -- -- 89
2020-01-18 23:00:00 5.1 9 Noroeste 30 Norte 3.6 -- -- 90
2020-01-18 22:00:00 5.6 12 Norte 37 Noroeste 9.6 -- -- 91
2020-01-18 21:00:00 7.2 12 Sudeste 30 Este 3.2 -- -- 89
2020-01-18 20:00:00 7.3 16 Sudeste 24 Sudeste 1 -- -- 86
2020-01-18 19:00:00 8.1 10 Sudeste 31 Sudeste 0.2 -- -- 80
2020-01-18 18:00:00 9.1 22 Sudeste 38 Sudeste 0.4 -- -- 73
2020-01-18 17:00:00 9.7 19 Sudeste 42 Sudeste 0 -- -- 65
2020-01-18 16:00:00 9.9 25 Sudeste 41 Sudeste 0 -- -- 63
2020-01-18 15:00:00 10.5 24 Sudeste 39 Sudeste 0 -- -- 61
2020-01-18 14:00:00 10.6 25 Sudeste 40 Sudeste 0 -- -- 59
2020-01-18 13:00:00 9.6 22 Sudeste 37 Sudeste 0 -- -- 62
2020-01-18 12:00:00 7.7 17 Sudeste 29 Sudeste 0 -- -- 68
2020-01-18 11:00:00 4.7 6 Sudeste 11 Sudeste 0 -- -- 85
2020-01-18 10:00:00 2.9 0 Calma 9 Sudeste 0 -- -- 90
2020-01-18 09:00:00 2.8 5 Sur 9 Sur 0 -- -- 90
2020-01-18 08:00:00 2.4 2 Sudoeste 8 Sudeste 0 -- -- 91
2020-01-18 07:00:00 2 5 Este 9 Este 0 -- -- 92
2020-01-18 06:00:00 2.1 2 Oeste 5 Nordeste 0 -- -- 91
2020-01-18 05:00:00 2.3 2 Sudoeste 6 Noroeste 0 -- -- 90
2020-01-18 04:00:00 1.9 2 Oeste 7 Oeste 0 -- -- 90
2020-01-18 03:00:00 1.2 2 Este 7 Oeste 0 -- -- 90
2020-01-18 02:00:00 1.9 4 Oeste 9 Noroeste 0 -- -- 87
2020-01-18 01:00:00 3.1 4 Noroeste 10 Noroeste 0 -- -- 83
2020-01-18 00:00:00 3.9 9 Noroeste 12 Noroeste 0 -- -- 81
2020-01-17 23:00:00 5.5 8 Noroeste 13 Noroeste 0 -- -- 77
2020-01-17 22:00:00 6.7 9 Noroeste 15 Noroeste 0 -- -- 71
2020-01-17 21:00:00 6.3 7 Noroeste 13 Noroeste 0 -- -- 74
2020-01-17 20:00:00 6.7 7 Noroeste 13 Noroeste 0 -- -- 74
2020-01-17 19:00:00 7.5 6 Noroeste 24 Norte 0 -- -- 70
2020-01-17 18:00:00 7.8 12 Norte 26 Norte 0 -- -- 69
2020-01-17 17:00:00 8.9 13 Norte 32 Noroeste 0 -- -- 64
2020-01-17 16:00:00 9.4 17 Norte 34 Norte 0.2 -- -- 67
2020-01-17 15:00:00 10.7 17 Norte 32 Norte 0 -- -- 65
2020-01-17 14:00:00 10.7 15 Norte 27 Norte 0 -- -- 68
2020-01-17 13:00:00 8.3 12 Norte 48 Norte 0.4 -- -- 85
2020-01-17 12:00:00 11.3 10 Noroeste 24 Noroeste 0 -- -- 67
2020-01-17 11:00:00 10.2 8 Noroeste 17 Noroeste 0 -- -- 72
2020-01-17 10:00:00 7.2 3 Noroeste 11 Noroeste 0 -- -- 89
2020-01-17 09:00:00 6.4 5 Norte 13 Noroeste 0 -- -- 88
2020-01-17 08:00:00 4.8 6 Sur 9 Sur 0 -- -- 93
2020-01-17 07:00:00 4.8 5 Sur 8 Sudeste 0 -- -- 89
2020-01-17 06:00:00 5.2 0 Calma 6 Este 0 -- -- 88
2020-01-17 05:00:00 6.8 4 Sudeste 14 Sudeste 0 -- -- 82
2020-01-17 04:00:00 8.4 8 Sudeste 15 Este 0 -- -- 79
2020-01-17 03:00:00 8.7 7 Sudeste 24 Sudeste 0 -- -- 79
2020-01-17 02:00:00 9.2 13 Sudeste 25 Sudeste 0 -- -- 79
2020-01-17 01:00:00 10.1 12 Sur 27 Sudeste 0 -- -- 73
2020-01-17 00:00:00 10.4 18 Sudeste 33 Sudeste 0 -- -- 70
2020-01-16 23:00:00 9.9 17 Sudeste 27 Sudeste 0 -- -- 73
2020-01-16 22:00:00 10 16 Sudeste 28 Sur 0 -- -- 73
2020-01-16 21:00:00 9.2 14 Sur 32 Sur 0 -- -- 77
2020-01-16 20:00:00 9.8 15 Sudeste 35 Sudeste 0 -- -- 74
2020-01-16 19:00:00 10.5 21 Sudeste 32 Sudeste 0 -- -- 72
2020-01-16 18:00:00 11.2 16 Sudeste 31 Sudeste 0 -- -- 70
2020-01-16 17:00:00 13.1 18 Sudeste 35 Sudeste 0 -- -- 64
2020-01-16 16:00:00 13.6 24 Sudeste 37 Sudeste 0 -- -- 61
2020-01-16 15:00:00 13.5 25 Sudeste 37 Sudeste 0 -- -- 62
2020-01-16 14:00:00 12.8 24 Sudeste 36 Sudeste 0 -- -- 64
2020-01-16 13:00:00 12.4 21 Sudeste 37 Sudeste 0 -- -- 66
2020-01-16 12:00:00 11.7 23 Sudeste 42 Sudeste 0 -- -- 67
2020-01-16 11:00:00 10 15 Sudeste 26 Sudeste 0 -- -- 76
2020-01-16 10:00:00 3.9 0 Calma 5 Sur 0 -- -- 89
2020-01-16 09:00:00 3 3 Noroeste 18 Sudeste 0 -- -- 90
2020-01-16 08:00:00 2.8 12 Sudeste 17 Sudeste 0 -- -- 92
2020-01-16 07:00:00 0 5 Sudeste 7 Sudeste 0 -- -- 95
2020-01-16 06:00:00 1 5 Sudeste 11 Sur 0 -- -- 92
2020-01-16 05:00:00 1.7 5 Sur 10 Sur 0 -- -- 95
2020-01-16 04:00:00 0.5 0 Calma 9 Sur 0 -- -- 93
2020-01-16 03:00:00 0.6 2 Sudeste 5 Sudoeste 0 -- -- 91
2020-01-16 02:00:00 2.2 3 Sur 8 Sur 0 -- -- 88
2020-01-16 01:00:00 3.1 5 Sudeste 9 Sudeste 0 -- -- 91
2020-01-16 00:00:00 3.4 6 Este 12 Sudeste 0 -- -- 90
2020-01-15 23:00:00 2.2 5 Este 9 Este 0 -- -- 90
2020-01-15 22:00:00 3.2 0 Calma 6 Este 0 -- -- 89
2020-01-15 21:00:00 4.6 0 Calma 8 Sudoeste 0 -- -- 83
2020-01-15 20:00:00 6.7 3 Este 11 Sur 0 -- -- 78
2020-01-15 19:00:00 8.6 4 Sur 11 Sur 0 -- -- 73
2020-01-15 18:00:00 9.5 4 Sur 10 Sudeste 0 -- -- 69
2020-01-15 17:00:00 10.7 5 Sudeste 14 Sudeste 0 -- -- 63
2020-01-15 16:00:00 10.7 10 Sudeste 28 Sudeste 0 -- -- 62
2020-01-15 15:00:00 10.5 14 Sudeste 32 Sudeste 0 -- -- 62
2020-01-15 14:00:00 10 18 Sudeste 30 Sudeste 0 -- -- 63
2020-01-15 13:00:00 9.2 15 Sudeste 28 Sur 0 -- -- 68
2020-01-15 12:00:00 7.8 15 Sudeste 27 Sudeste 0 -- -- 70
2020-01-15 11:00:00 7.3 12 Sudeste 23 Sudeste 0 -- -- 71
2020-01-15 10:00:00 6.3 12 Sudeste 21 Sudeste 0 -- -- 74
2020-01-15 09:00:00 5.5 10 Sudeste 19 Sudeste 0 -- -- 77
2020-01-15 08:00:00 4.8 9 Este 19 Este 0 -- -- 77
2020-01-15 07:00:00 5.1 15 Sudeste 24 Sudeste 0 -- -- 74
2020-01-15 06:00:00 4.9 9 Este 28 Sudeste 0 -- -- 75
2020-01-15 05:00:00 4.3 13 Sudeste 31 Sudeste 0 -- -- 77
2020-01-15 04:00:00 4.8 17 Sudeste 27 Sudeste 0 -- -- 76
2020-01-15 03:00:00 3.6 14 Sudeste 23 Sudeste 0 -- -- 82
2020-01-15 02:00:00 1.1 9 Sudeste 15 Este 0 -- -- 91
2020-01-15 01:00:00 -0.4 7 Sudeste 10 Sudeste 0 -- -- 95
2020-01-15 00:00:00 -0.9 3 Sur 10 Sur 0 -- -- 97
2020-01-14 23:00:00 -2 3 Este 5 Sudoeste 0 -- -- 97
2020-01-14 22:00:00 -1.5 0 Calma 5 Sur 0 -- -- 97
2020-01-14 21:00:00 -1 2 Nordeste 8 Norte 0 -- -- 97
2020-01-14 20:00:00 -0.6 0 Calma 8 Sudoeste 0 -- -- 97
2020-01-14 19:00:00 0 3 Este 8 Sur 0 -- -- 95
2020-01-14 18:00:00 2.3 4 Sur 9 Sur 0 -- -- 87
2020-01-14 17:00:00 4 4 Sudeste 9 Sudeste 0 -- -- 85
2020-01-14 16:00:00 3.8 7 Sudeste 10 Sudeste 0 -- -- 84
2020-01-14 15:00:00 3.2 2 Noroeste 8 Sudeste 0 -- -- 89
2020-01-14 14:00:00 1.1 4 Sur 8 Sur 0 -- -- 98
2020-01-14 13:00:00 0 3 Sur 6 Noroeste 0 -- -- 98
2020-01-14 12:00:00 -1.5 3 Sudeste 13 Sudeste 0 -- -- 98
2020-01-14 11:00:00 -1.8 7 Sudeste 11 Sudeste 0 -- -- 98
2020-01-14 10:00:00 -2.2 0 Calma 7 Este 0 -- -- 98
2020-01-14 09:00:00 -2.3 3 Sur 8 Sudeste 0 -- -- 98
2020-01-14 08:00:00 -2.2 5 Sudeste 8 Sur 0 -- -- 98
2020-01-14 07:00:00 -2 3 Sur 9 Sur 0 -- -- 98
2020-01-14 06:00:00 -1.7 4 Este 7 Este 0 -- -- 98
2020-01-14 05:00:00 -1.6 0 Calma 12 Noroeste 0 -- -- 98
2020-01-14 04:00:00 -2.4 5 Oeste 9 Noroeste 0 -- -- 98
2020-01-14 03:00:00 -2.5 3 Sudeste 9 Sur 0 -- -- 98
2020-01-14 02:00:00 -2.6 5 Sur 10 Sur 0 -- -- 97
2020-01-14 01:00:00 -2.2 3 Sudoeste 8 Sudoeste 0 -- -- 94
2020-01-14 00:00:00 -1.2 3 Noroeste 9 Noroeste 0 -- -- 95
2020-01-13 23:00:00 -1.4 3 Noroeste 5 Oeste 0 -- -- 95
2020-01-13 22:00:00 -1.2 0 Calma 5 Noroeste 0 -- -- 94
2020-01-13 21:00:00 -0.9 2 Sudeste 7 Noroeste 0 -- -- 94
2020-01-13 20:00:00 -0.4 3 Oeste 4 Noroeste 0 -- -- 92
2020-01-13 19:00:00 0.8 0 Calma 6 Noroeste 0 -- -- 91
2020-01-13 18:00:00 2.7 0 Calma 9 Sur 0 -- -- 87
2020-01-13 17:00:00 3.6 0 Calma 9 Sudeste 0 -- -- 83
2020-01-13 16:00:00 4.1 7 Sudeste 10 Sudeste 0 -- -- 82
2020-01-13 15:00:00 4.7 6 Sur 15 Sudeste 0 -- -- 79
2020-01-13 14:00:00 4.7 3 Sur 6 Sudoeste 0 -- -- 81
2020-01-13 13:00:00 3.2 4 Sur 8 Sur 0 -- -- 84
2020-01-13 12:00:00 2.1 4 Sudeste 6 Sudeste 0 -- -- 89
2020-01-13 11:00:00 0.5 0 Calma 4 Sudeste 0 -- -- 91
2020-01-13 10:00:00 -1.4 0 Calma 4 Oeste 0 -- -- 95
2020-01-13 09:00:00 -2.9 0 Calma 3 Norte 0 -- -- 94
2020-01-13 08:00:00 -2.7 0 Calma 4 Sudeste 0 -- -- 93
2020-01-13 07:00:00 -1.9 3 Norte 6 Norte 0 -- -- 94
2020-01-13 06:00:00 -1.3 4 Noroeste 8 Noroeste 0 -- -- 93
2020-01-13 05:00:00 -1.1 4 Noroeste 8 Noroeste 0 -- -- 92
2020-01-13 04:00:00 -1.5 4 Noroeste 6 Noroeste 0 -- -- 94
2020-01-13 03:00:00 -1.8 0 Calma 5 Noroeste 0 -- -- 90
2020-01-13 02:00:00 -0.6 5 Noroeste 6 Noroeste 0 -- -- 93
2020-01-13 01:00:00 -0.3 3 Noroeste 7 Noroeste 0 -- -- 91
2020-01-13 00:00:00 -0.6 2 Noroeste 6 Oeste 0 -- -- 89
2020-01-12 23:00:00 0.1 2 Oeste 4 Oeste 0 -- -- 90
2020-01-12 22:00:00 1.5 0 Calma 6 Sudoeste 0 -- -- 87
2020-01-12 21:00:00 3.8 2 Sudoeste 8 Sur 0 -- -- 79
2020-01-12 20:00:00 5.3 0 Calma 8 Noroeste 0 -- -- 73
2020-01-12 19:00:00 7.8 5 Norte 18 Norte 0 -- -- 65
2020-01-12 18:00:00 9.4 10 Norte 19 Norte 0 -- -- 59
2020-01-12 17:00:00 11.2 7 Norte 14 Norte 0 -- -- 50
2020-01-12 16:00:00 12.1 8 Noroeste 19 Noroeste 0 -- -- 41
2020-01-12 15:00:00 12.4 7 Oeste 21 Noroeste 0 -- -- 45
2020-01-12 14:00:00 11.4 10 Noroeste 18 Oeste 0 -- -- 50
2020-01-12 13:00:00 9.4 10 Noroeste 22 Norte 0 -- -- 61
2020-01-12 12:00:00 8.2 14 Noroeste 24 Noroeste 0 -- -- 61
2020-01-12 11:00:00 6.2 13 Noroeste 22 Noroeste 0 -- -- 67
2020-01-12 10:00:00 4.9 17 Noroeste 31 Noroeste 0 -- -- 66
2020-01-12 09:00:00 3.1 16 Noroeste 23 Noroeste 0 -- -- 71
2020-01-12 08:00:00 1.8 15 Noroeste 19 Noroeste 0 -- -- 77
2020-01-12 07:00:00 1.3 9 Noroeste 16 Noroeste 0 -- -- 80
2020-01-12 06:00:00 -1.9 3 Noroeste 9 Noroeste 0 -- -- 92
2020-01-12 05:00:00 -0.3 5 Noroeste 13 Oeste 0 -- -- 90
2020-01-12 04:00:00 -1.4 5 Norte 10 Noroeste 0 -- -- 89
2020-01-12 03:00:00 -1.1 3 Noroeste 6 Noroeste 0 -- -- 89
2020-01-12 02:00:00 -0.3 4 Norte 9 Noroeste 0 -- -- 87
2020-01-12 01:00:00 0.5 6 Oeste 14 Oeste 0 -- -- 85
2020-01-12 00:00:00 0.3 7 Noroeste 9 Oeste 0 -- -- 87
2020-01-11 23:00:00 1.2 4 Norte 9 Norte 0 -- -- 84
2020-01-11 22:00:00 2.7 4 Noroeste 14 Noroeste 0 -- -- 81
2020-01-11 21:00:00 3.6 6 Noroeste 12 Noroeste 0 -- -- 79
2020-01-11 20:00:00 5 7 Noroeste 13 Noroeste 0 -- -- 75
2020-01-11 19:00:00 5.3 6 Noroeste 8 Noroeste 0 -- -- 77
2020-01-11 18:00:00 8.3 5 Oeste 13 Noroeste 0 -- -- 66
2020-01-11 17:00:00 10 8 Noroeste 16 Oeste 0 -- -- 56
2020-01-11 16:00:00 10.2 11 Noroeste 23 Noroeste 0 -- -- 54
2020-01-11 15:00:00 10.5 12 Noroeste 26 Noroeste 0 -- -- 55
2020-01-11 14:00:00 10 15 Noroeste 28 Noroeste 0 -- -- 58
2020-01-11 13:00:00 9.3 17 Noroeste 27 Noroeste 0 -- -- 57
2020-01-11 12:00:00 8.6 15 Noroeste 31 Oeste 0 -- -- 61
2020-01-11 11:00:00 6.9 17 Noroeste 26 Noroeste 0 -- -- 71
2020-01-11 10:00:00 5.6 9 Noroeste 26 Noroeste 0 -- -- 73
2020-01-11 09:00:00 3.7 12 Noroeste 28 Noroeste 0 -- -- 79
2020-01-11 08:00:00 4.1 17 Noroeste 31 Noroeste 0 -- -- 78
2020-01-11 07:00:00 3.9 12 Oeste 26 Noroeste 0 -- -- 77
2020-01-11 06:00:00 4.5 12 Noroeste 30 Noroeste 0 -- -- 75
2020-01-11 05:00:00 5.3 9 Oeste 28 Sudoeste 0 -- -- 72
2020-01-11 04:00:00 5.7 19 Noroeste 48 Norte 0 -- -- 72
2020-01-11 03:00:00 6 30 Norte 48 Norte 0 -- -- 70
2020-01-11 02:00:00 5.8 23 Noroeste 48 Noroeste 0 -- -- 71
2020-01-11 01:00:00 6.5 26 Norte 49 Norte 0 -- -- 69
2020-01-11 00:00:00 6.1 19 Norte 38 Norte 0 -- -- 75
2020-01-10 23:00:00 6.3 18 Norte 40 Norte 0 -- -- 77
2020-01-10 22:00:00 6.5 17 Noroeste 30 Noroeste 0 -- -- 78
2020-01-10 21:00:00 6.5 15 Noroeste 24 Noroeste 0 -- -- 80
2020-01-10 20:00:00 6.9 10 Noroeste 30 Noroeste 0 -- -- 78
2020-01-10 19:00:00 7.2 10 Noroeste 27 Noroeste 0 -- -- 77
2020-01-10 18:00:00 8.2 8 Noroeste 19 Norte 0 -- -- 74
2020-01-10 17:00:00 8.5 9 Noroeste 31 Noroeste 0 -- -- 71
2020-01-10 16:00:00 8.6 20 Noroeste 35 Norte 0 -- -- 76
2020-01-10 15:00:00 8.9 16 Noroeste 33 Noroeste 0 -- -- 72
2020-01-10 14:00:00 8.9 14 Noroeste 30 Noroeste 0 -- -- 73
2020-01-10 13:00:00 8.5 14 Noroeste 36 Noroeste 0 -- -- 76
2020-01-10 12:00:00 7.8 15 Noroeste 25 Noroeste 0 -- -- 81
2020-01-10 11:00:00 6.7 13 Noroeste 20 Noroeste 0 -- -- 85
2020-01-10 10:00:00 5.3 9 Noroeste 16 Noroeste 0 -- -- 89
2020-01-10 09:00:00 3.9 5 Norte 16 Noroeste 0 -- -- 90
2020-01-10 08:00:00 4.5 6 Norte 21 Noroeste 0 -- -- 90
2020-01-10 07:00:00 5.6 15 Noroeste 26 Noroeste 0 -- -- 81
2020-01-10 06:00:00 4.7 10 Oeste 18 Noroeste 0 -- -- 88
2020-01-10 05:00:00 4.6 7 Noroeste 16 Noroeste 0 -- -- 92
2020-01-10 04:00:00 4.8 10 Noroeste 20 Noroeste 0 -- -- 94
2020-01-10 03:00:00 4.5 0 Calma 19 Noroeste 0 -- -- 96
2020-01-10 02:00:00 4.7 11 Noroeste 20 Noroeste 0 -- -- 97
2020-01-10 01:00:00 4.5 11 Noroeste 15 Noroeste 0 -- -- 99
2020-01-10 00:00:00 4.1 0 Calma 13 Noroeste 0.2 -- -- 99
2020-01-09 23:00:00 4 3 Sudoeste 14 Noroeste 0 -- -- 99
2020-01-09 22:00:00 3.9 3 Este 6 Oeste 0 -- -- 99
2020-01-09 21:00:00 3.9 2 Sur 8 Sudoeste 0 -- -- 99
2020-01-09 20:00:00 3.9 5 Noroeste 18 Noroeste 0 -- -- 99
2020-01-09 19:00:00 3.7 9 Noroeste 22 Noroeste 0 -- -- 99
2020-01-09 18:00:00 3.7 5 Oeste 16 Noroeste 0 -- -- 99
2020-01-09 17:00:00 3.9 2 Sudoeste 8 Sur 0 -- -- 98
2020-01-09 16:00:00 4 3 Sur 12 Sudeste 0 -- -- 99
2020-01-09 15:00:00 3.9 3 Oeste 14 Sudeste 0 -- -- 99
2020-01-09 14:00:00 3.7 9 Sudeste 15 Sudeste 0 -- -- 99
2020-01-09 13:00:00 3.5 4 Sur 14 Sudeste 0 -- -- 99
2020-01-09 12:00:00 3.4 6 Sudeste 9 Sudeste 0 -- -- 99
2020-01-09 11:00:00 3.1 0 Calma 7 Este 0 -- -- 99
2020-01-09 10:00:00 2.5 0 Calma 7 Este 0 -- -- 99
2020-01-09 09:00:00 2.4 5 Este 10 Sudeste 0 -- -- 99
2020-01-09 08:00:00 2.5 5 Norte 9 Norte 0 -- -- 99
2020-01-09 07:00:00 2.5 0 Calma 6 Este 0 -- -- 99
2020-01-09 06:00:00 2.6 4 Este 6 Sudeste 0 -- -- 99
2020-01-09 05:00:00 2.4 4 Sudeste 8 Este 0 -- -- 99
2020-01-09 04:00:00 2.9 0 Calma 5 Este 0 -- -- 99
2020-01-09 03:00:00 3 4 Este 5 Este 0 -- -- 99
2020-01-09 02:00:00 3.1 4 Sudeste 10 Sudeste 0 -- -- 98
2020-01-09 01:00:00 3.3 7 Sudeste 10 Sudeste 0 -- -- 98
2020-01-09 00:00:00 2.7 0 Calma 8 Este 0 -- -- 98
2020-01-08 23:00:00 2.8 4 Nordeste 9 Este 0 -- -- 98
2020-01-08 22:00:00 2.8 4 Sudeste 8 Sudeste 0 -- -- 98
2020-01-08 21:00:00 2.8 0 Calma 9 Sur 0 -- -- 98
2020-01-08 20:00:00 2.5 0 Calma 5 Sur 0 -- -- 97
2020-01-08 19:00:00 3.1 5 Sudeste 9 Sur 0 -- -- 96
2020-01-08 18:00:00 4 0 Calma 6 Este 0 -- -- 93
2020-01-08 17:00:00 4.7 3 Este 8 Este 0 -- -- 93
2020-01-08 16:00:00 4.6 4 Sur 12 Sudeste 0 -- -- 96
2020-01-08 15:00:00 4.2 8 Sudeste 13 Sudeste 0 -- -- 98
2020-01-08 14:00:00 3.5 8 Sudeste 17 Sudeste 0 -- -- 98
2020-01-08 13:00:00 3.2 7 Sudeste 15 Sudeste 0 -- -- 98
2020-01-08 12:00:00 2.6 9 Sudeste 17 Sudeste 0 -- -- 98
2020-01-08 11:00:00 2 6 Sur 12 Sur 0 -- -- 98
2020-01-08 10:00:00 1.5 8 Sudeste 13 Sudeste 0 -- -- 98
2020-01-08 09:00:00 1.1 3 Sudeste 10 Sudeste 0 -- -- 98
2020-01-08 08:00:00 0.8 3 Sur 9 Sur 0 -- -- 96
2020-01-08 07:00:00 1.7 3 Sur 6 Sur 0 -- -- 94
2020-01-08 06:00:00 2.7 4 Sudeste 14 Noroeste 0 -- -- 92
2020-01-08 05:00:00 9.8 11 Noroeste 21 Oeste 0 -- -- 81
2020-01-08 04:00:00 8.9 16 Noroeste 26 Noroeste 0 -- -- 84
2020-01-08 03:00:00 9.6 17 Noroeste 25 Oeste 0 -- -- 81
2020-01-08 02:00:00 9.7 11 Noroeste 21 Noroeste 0 -- -- 80
2020-01-08 01:00:00 9.4 5 Norte 24 Noroeste 0 -- -- 80
2020-01-08 00:00:00 10.2 12 Noroeste 31 Noroeste 0 -- -- 78
2020-01-07 23:00:00 9.3 16 Noroeste 25 Norte 0 -- -- 83
2020-01-07 22:00:00 10.1 15 Noroeste 24 Noroeste 0 -- -- 80
2020-01-07 21:00:00 10.1 13 Noroeste 20 Noroeste 0 -- -- 80
2020-01-07 20:00:00 6 6 Noroeste 10 Norte 0 -- -- 99
2020-01-07 19:00:00 3.4 0 Calma 5 Noroeste 0 -- -- 93
2020-01-07 18:00:00 4.7 0 Calma 4 Sur 0 -- -- 92
2020-01-07 17:00:00 5.3 4 Sur 8 Sur 0 -- -- 91
2020-01-07 16:00:00 4 2 Sudeste 5 Sudeste 0 -- -- 96
2020-01-07 15:00:00 2.7 3 Sudeste 7 Sudeste 0 -- -- 97
2020-01-07 14:00:00 1.6 2 Sudeste 6 Sudeste 0 -- -- 98
2020-01-07 13:00:00 0.4 3 Este 8 Sur 0 -- -- 98
2020-01-07 12:00:00 -0.5 4 Sudeste 7 Sur 0 -- -- 98
2020-01-07 11:00:00 -1.5 3 Este 5 Este 0 -- -- 97
2020-01-07 10:00:00 -2.2 0 Calma 5 Oeste 0 -- -- 97
2020-01-07 09:00:00 -2.4 0 Calma 4 Este 0 -- -- 97
2020-01-07 08:00:00 -2.1 0 Calma 5 Sudoeste 0 -- -- 97
2020-01-07 07:00:00 -1.8 2 Sudoeste 4 Sudeste 0 -- -- 96
2020-01-07 06:00:00 -1.5 3 Sudeste 6 Sudeste 0 -- -- 95
2020-01-07 05:00:00 -0.1 5 Este 16 Noroeste 0 -- -- 91
2020-01-07 04:00:00 4.9 6 Oeste 21 Oeste 0 -- -- 84
2020-01-07 03:00:00 4.8 12 Noroeste 23 Noroeste 0 -- -- 88
2020-01-07 02:00:00 3.6 12 Noroeste 21 Noroeste 0 -- -- 92
2020-01-07 01:00:00 2 12 Noroeste 16 Noroeste 0 -- -- 97
2020-01-07 00:00:00 0.3 3 Nordeste 13 Noroeste 0 -- -- 96
2020-01-06 23:00:00 2.4 9 Noroeste 18 Noroeste 0 -- -- 99
2020-01-06 22:00:00 0.1 6 Noroeste 10 Noroeste 0 -- -- 99
2020-01-06 21:00:00 0 8 Noroeste 14 Oeste 0 -- -- 98
2020-01-06 20:00:00 0.5 11 Noroeste 15 Noroeste 0 -- -- 98
2020-01-06 19:00:00 1.5 8 Noroeste 12 Noroeste 0 -- -- 97
2020-01-06 18:00:00 1.5 5 Noroeste 8 Noroeste 0 -- -- 97
2020-01-06 17:00:00 2 0 Calma 6 Nordeste 0 -- -- 97
2020-01-06 16:00:00 2 2 Este 7 Oeste 0 -- -- 97
2020-01-06 15:00:00 1.7 3 Nordeste 10 Noroeste 0 -- -- 97
2020-01-06 14:00:00 1.2 3 Norte 8 Norte 0 -- -- 97
2020-01-06 13:00:00 1 5 Noroeste 8 Noroeste 0 -- -- 97
2020-01-06 12:00:00 0.2 2 Nordeste 6 Oeste 0 -- -- 98
2020-01-06 11:00:00 -0.3 3 Norte 6 Norte 0 -- -- 98
2020-01-06 10:00:00 -0.4 3 Norte 7 Norte 0 -- -- 98